Latest Weather Observations for Rowley Shoals

IDW60801

Issued at 3:35 am WST Friday 22 August 2014 (issued every 30 minutes, with the page automatically refreshed every 10 minutes)

About weather observations | Map of weather stations | Latest weather observations for WA | Other Formats
Station Details ID: 200713 Name: ROWLEY SHOALS Lat: -17.52 Lon: 118.95 Height: 0.0 m
Data from the previous 72 hours. | See also: Recent months for locations in Western Australia
Date/Time
WST
Temp
°C
App
Temp
°C
Dew
Point
Rel
Hum
%
Delta-T
°C
Wind Press
QNH
hPa
Press
MSL
hPa
Rain
since 9 am
mm
Dir
 
Spd
km/h
Gust
km/h
Spd
kts
Gust
kts
22/03:30am - - - - - SW 11 13 6 7 1014.1 - -
22/03:00am - - - - - SW 11 13 6 7 1014.1 1014.1 -
22/02:30am - - - - - SSW 7 9 4 5 1014.0 - -
22/02:00am - - - - - S 7 11 4 6 1014.3 1014.2 -
22/01:30am - - - - - S 11 15 6 8 1014.6 - -
22/01:00am - - - - - SSW 11 15 6 8 1014.8 1014.7 -
22/12:30am - - - - - S 11 13 6 7 1015.1 - -
22/12:00am - - - - - S 9 13 5 7 1015.3 1015.3 -
 
Date/Time
WST
Temp
°C
App
Temp
°C
Dew
Point
Rel
Hum
%
Delta-T
°C
Wind Press
QNH
hPa
Press
MSL
hPa
Rain
since 9 am
mm
Dir
 
Spd
km/h
Gust
km/h
Spd
kts
Gust
kts
21/11:30pm - - - - - S 7 11 4 6 1015.4 - -
21/11:00pm - - - - - S 9 13 5 7 1015.6 1015.6 -
21/10:30pm - - - - - SSE 9 13 5 7 1015.8 - -
21/10:00pm - - - - - S 9 15 5 8 1015.9 1015.9 -
21/09:30pm - - - - - S 13 17 7 9 1015.9 - -
21/09:00pm - - - - - S 11 15 6 8 1015.9 1015.9 -
21/08:30pm - - - - - SSE 15 17 8 9 1015.7 - -
21/08:00pm - - - - - SE 17 20 9 11 1015.5 1015.5 -
21/07:30pm - - - - - SE 19 20 10 11 1015.1 - -
21/07:00pm - - - - - SE 19 20 10 11 1014.7 1014.9 -
21/06:30pm - - - - - SE 17 22 9 12 1014.4 - -
21/06:00pm - - - - - SE 17 20 9 11 1014.1 1014.2 -
21/05:30pm - - - - - SSE 17 20 9 11 1014.0 - -
21/05:00pm - - - - - SE 15 19 8 10 1013.7 1013.8 -
21/04:30pm - - - - - ESE 15 19 8 10 1013.5 - -
21/04:00pm - - - - - SE 15 17 8 9 1013.4 1013.5 -
21/03:30pm - - - - - SE 15 19 8 10 1013.4 - -
21/03:00pm - - - - - SE 15 19 8 10 1013.3 1013.3 -
21/02:30pm - - - - - ESE 11 17 6 9 1013.4 - -
21/02:00pm - - - - - ESE 15 17 8 9 1013.6 1013.6 -
21/01:30pm - - - - - SE 13 17 7 9 1013.8 - -
21/01:00pm - - - - - SSE 15 17 8 9 1014.3 1014.1 -
21/12:30pm - - - - - SSE 11 15 6 8 1014.9 - -
21/12:00pm - - - - - SSE 11 13 6 7 1015.2 1015.1 -
21/11:30am - - - - - SSE 9 13 5 7 1015.6 - -
21/11:00am - - - - - SSE 9 11 5 6 1016.0 1015.9 -
21/10:30am - - - - - SSE 9 13 5 7 1016.4 - -
21/10:00am - - - - - S 9 13 5 7 1016.6 1016.5 -
21/09:30am - - - - - S 7 7 4 4 1016.5 - -
21/09:00am - - - - - S 7 9 4 5 1016.3 1016.4 -
21/08:30am - - - - - S 7 11 4 6 1015.9 - -
21/08:00am - - - - - S 7 9 4 5 1015.6 1015.6 -
21/07:30am - - - - - S 7 9 4 5 1015.3 - -
21/07:00am - - - - - S 6 7 3 4 1015.1 1015.2 -
21/06:30am - - - - - CALM 0 0 0 0 1014.9 - -
21/06:00am - - - - - S 2 7 1 4 1014.6 1014.7 -
21/05:30am - - - - - S 7 9 4 5 1014.2 - -
21/05:00am - - - - - S 7 7 4 4 1013.8 1013.8 -
21/04:30am - - - - - SW 6 6 3 3 1013.6 - -
21/04:00am - - - - - SSW 6 6 3 3 1013.6 1013.6 -
21/03:30am - - - - - CALM 0 0 0 0 1013.6 - -
21/03:00am - - - - - S 2 6 1 3 1013.6 1013.7 -
21/02:30am - - - - - SE 7 9 4 5 1013.7 - -
21/02:00am - - - - - SE 11 11 6 6 1013.9 1013.8 -
21/01:30am - - - - - ESE 9 11 5 6 1014.0 - -
21/01:00am - - - - - SE 7 9 4 5 1014.2 1014.2 -
21/12:30am - - - - - SE 9 11 5 6 1014.4 - -
21/12:00am - - - - - SSE 9 11 5 6 1014.7 1014.7 -
 
Date/Time
WST
Temp
°C
App
Temp
°C
Dew
Point
Rel
Hum
%
Delta-T
°C
Wind Press
QNH
hPa
Press
MSL
hPa
Rain
since 9 am
mm
Dir
 
Spd
km/h
Gust
km/h
Spd
kts
Gust
kts
20/11:30pm - - - - - SSE 11 13 6 7 1014.8 - -
20/11:00pm - - - - - SSE 13 17 7 9 1015.0 1014.9 -
20/10:30pm - - - - - SSE 13 15 7 8 1015.2 - -
20/10:00pm - - - - - SSE 11 17 6 9 1015.3 1015.3 -
20/09:30pm - - - - - SSE 11 15 6 8 1015.3 - -
20/09:00pm - - - - - SSE 13 17 7 9 1015.3 1015.3 -
20/08:30pm - - - - - SSE 15 19 8 10 1015.2 - -
20/08:00pm - - - - - SSE 15 17 8 9 1015.1 1015.2 -
20/07:30pm - - - - - SSE 13 15 7 8 1014.7 - -
20/07:00pm - - - - - SE 13 15 7 8 1014.4 1014.5 -
20/06:30pm - - - - - SE 15 17 8 9 1014.2 - -
20/06:00pm - - - - - SE 15 17 8 9 1014.2 1014.2 -
20/05:30pm - - - - - SE 17 19 9 10 1014.0 - -
20/05:00pm - - - - - SE 19 26 10 14 1013.9 1013.9 -
20/04:30pm - - - - - SE 19 24 10 13 1013.9 - -
20/04:00pm - - - - - SE 19 22 10 12 1013.9 1013.9 -
20/03:30pm - - - - - SSE 19 24 10 13 1014.1 - -
20/03:00pm - - - - - SSE 20 24 11 13 1014.3 1014.2 -
20/02:30pm - - - - - SSE 20 24 11 13 1014.5 - -
20/02:00pm - - - - - SSE 20 24 11 13 1014.8 1014.7 -
20/01:30pm - - - - - SSE 19 24 10 13 1015.1 - -
20/01:00pm - - - - - SSE 19 22 10 12 1015.6 1015.5 -
20/12:30pm - - - - - SE 19 24 10 13 1016.0 - -
20/12:00pm - - - - - SE 19 22 10 12 1016.3 1016.3 -
20/11:30am - - - - - SE 19 22 10 12 1016.6 - -
20/11:00am - - - - - SE 20 24 11 13 1016.7 1016.6 -
20/10:30am - - - - - SE 22 26 12 14 1016.9 - -
20/10:00am - - - - - SE 22 26 12 14 1016.8 1016.9 -
20/09:30am - - - - - SE 19 22 10 12 1017.0 - -
20/09:00am - - - - - SSE 19 20 10 11 1016.9 1016.9 -
20/08:30am - - - - - SSE 17 22 9 12 1016.5 - -
20/08:00am - - - - - SSE 19 20 10 11 1016.3 1016.4 -
20/07:30am - - - - - SSE 15 17 8 9 1015.9 - -
20/07:00am - - - - - S 9 11 5 6 1015.5 1015.6 -
20/06:30am - - - - - S 11 15 6 8 1015.3 - -
20/06:00am - - - - - S 11 15 6 8 1015.0 1015.1 -
20/05:30am - - - - - S 9 11 5 6 1014.8 - -
20/05:00am - - - - - S 11 17 6 9 1014.5 1014.5 -
20/04:30am - - - - - SSE 15 17 8 9 1014.3 - -
20/04:00am - - - - - S 13 17 7 9 1014.4 1014.4 -
20/03:30am - - - - - SSE 15 19 8 10 1014.4 - -
20/03:00am - - - - - S 11 15 6 8 1014.5 1014.4 -
20/02:30am - - - - - SSE 13 15 7 8 1014.7 - -
20/02:00am - - - - - S 13 15 7 8 1014.8 1014.8 -
20/01:30am - - - - - S 11 17 6 9 1015.0 - -
20/01:00am - - - - - S 11 15 6 8 1015.2 1015.1 -
20/12:30am - - - - - S 13 17 7 9 1015.4 - -
20/12:00am - - - - - S 11 17 6 9 1015.6 1015.6 -
 
Date/Time
WST
Temp
°C
App
Temp
°C
Dew
Point
Rel
Hum
%
Delta-T
°C
Wind Press
QNH
hPa
Press
MSL
hPa
Rain
since 9 am
mm
Dir
 
Spd
km/h
Gust
km/h
Spd
kts
Gust
kts
19/11:30pm - - - - - S 9 11 5 6 1015.9 - -
19/11:00pm - - - - - S 11 13 6 7 1016.2 1016.1 -
19/10:30pm - - - - - SSE 11 15 6 8 1016.3 - -
19/10:00pm - - - - - SSE 13 15 7 8 1016.4 1016.4 -
19/09:30pm - - - - - SSE 13 15 7 8 1016.6 - -
19/09:00pm - - - - - SE 13 17 7 9 1016.6 1016.6 -
19/08:30pm - - - - - SE 13 15 7 8 1016.6 - -
19/08:00pm - - - - - SE 13 17 7 9 1016.6 1016.6 -
19/07:30pm - - - - - SE 15 17 8 9 1016.3 - -
19/07:00pm - - - - - SSE 15 19 8 10 1016.1 1016.1 -
19/06:30pm - - - - - SSE 15 19 8 10 1015.6 - -
19/06:00pm - - - - - SSE 17 20 9 11 1015.4 1015.5 -
19/05:30pm - - - - - SSE 19 22 10 12 1015.3 - -
19/05:00pm - - - - - SSE 19 22 10 12 1015.2 1015.3 -
19/04:30pm - - - - - SSE 22 24 12 13 1015.1 - -
19/04:00pm - - - - - SSE 20 26 11 14 1015.0 1015.1 -
19/03:30pm - - - - - SSE 19 24 10 13 1015.1 - -
19/03:00pm - - - - - SSE 19 26 10 14 1015.2 1015.2 -
19/02:30pm - - - - - SSE 19 24 10 13 1015.2 - -
19/02:00pm - - - - - SSE 20 24 11 13 1015.4 1015.4 -
19/01:30pm - - - - - SSE 22 30 12 16 1015.8 - -
19/01:00pm - - - - - SSE 24 28 13 15 1016.2 1016.1 -
19/12:30pm - - - - - SSE 24 30 13 16 1016.6 - -
19/12:00pm - - - - - SSE 24 28 13 15 1016.9 1016.9 -
19/11:30am - - - - - SSE 26 32 14 17 1017.3 - -
19/11:00am - - - - - SSE 26 33 14 18 1017.7 1017.5 -
19/10:30am - - - - - SSE 24 28 13 15 1018.0 - -
19/10:00am - - - - - SE 24 30 13 16 1018.3 1018.3 -
19/09:30am - - - - - SE 22 26 12 14 1018.4 - -
19/09:00am - - - - - SE 22 26 12 14 1018.3 1018.4 -
19/08:30am - - - - - SE 24 30 13 16 1018.2 - -
19/08:00am - - - - - SE 24 30 13 16 1018.2 1018.3 -
19/07:30am - - - - - SE 22 28 12 15 1017.9 - -
19/07:00am - - - - - SE 22 24 12 13 1017.5 1017.6 -
19/06:30am - - - - - SSE 20 24 11 13 1017.3 - -
19/06:00am - - - - - SSE 20 24 11 13 1016.9 1017.0 -
19/05:30am - - - - - SSE 22 26 12 14 1016.6 - -
19/05:00am - - - - - SSE 19 24 10 13 1016.4 1016.5 -
19/04:30am - - - - - SSE 17 20 9 11 1016.2 - -
19/04:00am - - - - - SSE 17 20 9 11 1016.2 1016.2 -

Other Formats:

Comma delimited format used in spreadsheet applications
http://www.bom.gov.au/fwo/IDW60801/IDW60801.94207.axf

JavaScript Object Notation format (JSON) in row-major order
http://www.bom.gov.au/fwo/IDW60801/IDW60801.94207.json